sensor_id;sensor_type;location;lat;lon;timestamp;P1;durP1;ratioP1;P2;durP2;ratioP2
27408;SDS011;20413;50.782;7.152;2022-12-18T00:01:28;39.92;;;17.48;;
27408;SDS011;20413;50.782;7.152;2022-12-18T00:03:56;38.50;;;18.48;;
27408;SDS011;20413;50.782;7.152;2022-12-18T00:06:22;38.17;;;18.15;;
27408;SDS011;20413;50.782;7.152;2022-12-18T00:08:49;36.00;;;16.73;;
27408;SDS011;20413;50.782;7.152;2022-12-18T00:11:16;30.53;;;13.53;;
27408;SDS011;20413;50.782;7.152;2022-12-18T00:13:42;29.30;;;13.95;;
27408;SDS011;20413;50.782;7.152;2022-12-18T00:16:09;39.75;;;19.08;;
27408;SDS011;20413;50.782;7.152;2022-12-18T00:18:36;39.35;;;17.75;;
27408;SDS011;20413;50.782;7.152;2022-12-18T00:21:03;35.20;;;17.42;;
27408;SDS011;20413;50.782;7.152;2022-12-18T00:23:30;39.15;;;16.50;;
27408;SDS011;20413;50.782;7.152;2022-12-18T00:26:00;34.55;;;17.48;;
27408;SDS011;20413;50.782;7.152;2022-12-18T00:28:26;39.95;;;18.52;;
27408;SDS011;20413;50.782;7.152;2022-12-18T00:30:59;40.20;;;18.65;;
27408;SDS011;20413;50.782;7.152;2022-12-18T00:33:25;37.75;;;16.67;;
27408;SDS011;20413;50.782;7.152;2022-12-18T00:35:51;42.35;;;17.95;;
27408;SDS011;20413;50.782;7.152;2022-12-18T00:38:17;39.88;;;18.33;;
27408;SDS011;20413;50.782;7.152;2022-12-18T00:40:43;40.90;;;17.80;;
27408;SDS011;20413;50.782;7.152;2022-12-18T00:43:09;39.55;;;18.10;;
27408;SDS011;20413;50.782;7.152;2022-12-18T00:45:35;40.28;;;18.58;;
27408;SDS011;20413;50.782;7.152;2022-12-18T00:48:01;43.47;;;18.05;;
27408;SDS011;20413;50.782;7.152;2022-12-18T00:50:27;55.08;;;26.38;;
27408;SDS011;20413;50.782;7.152;2022-12-18T00:52:53;42.97;;;19.13;;
27408;SDS011;20413;50.782;7.152;2022-12-18T00:55:19;42.63;;;19.40;;
27408;SDS011;20413;50.782;7.152;2022-12-18T00:57:45;41.38;;;19.45;;
27408;SDS011;20413;50.782;7.152;2022-12-18T01:00:12;40.40;;;19.00;;
27408;SDS011;20413;50.782;7.152;2022-12-18T01:02:38;41.08;;;17.95;;
27408;SDS011;20413;50.782;7.152;2022-12-18T01:05:05;33.22;;;17.85;;
27408;SDS011;20413;50.782;7.152;2022-12-18T01:07:31;40.17;;;17.92;;
27408;SDS011;20413;50.782;7.152;2022-12-18T01:09:57;40.42;;;17.65;;
27408;SDS011;20413;50.782;7.152;2022-12-18T01:12:23;42.38;;;18.35;;
27408;SDS011;20413;50.782;7.152;2022-12-18T01:14:49;36.17;;;17.30;;
27408;SDS011;20413;50.782;7.152;2022-12-18T01:17:15;40.33;;;18.23;;
27408;SDS011;20413;50.782;7.152;2022-12-18T01:19:41;39.60;;;17.52;;
27408;SDS011;20413;50.782;7.152;2022-12-18T01:22:07;40.03;;;18.98;;
27408;SDS011;20413;50.782;7.152;2022-12-18T01:24:33;35.63;;;17.42;;
27408;SDS011;20413;50.782;7.152;2022-12-18T01:26:58;42.90;;;19.00;;
27408;SDS011;20413;50.782;7.152;2022-12-18T01:29:24;38.72;;;18.67;;
27408;SDS011;20413;50.782;7.152;2022-12-18T01:31:50;42.63;;;18.60;;
27408;SDS011;20413;50.782;7.152;2022-12-18T01:34:16;43.03;;;18.95;;
27408;SDS011;20413;50.782;7.152;2022-12-18T01:36:42;37.60;;;17.95;;
27408;SDS011;20413;50.782;7.152;2022-12-18T01:39:12;41.88;;;18.30;;
27408;SDS011;20413;50.782;7.152;2022-12-18T01:41:39;38.95;;;18.25;;
27408;SDS011;20413;50.782;7.152;2022-12-18T01:47:08;41.75;;;19.00;;
27408;SDS011;20413;50.782;7.152;2022-12-18T01:49:35;37.42;;;18.63;;
27408;SDS011;20413;50.782;7.152;2022-12-18T01:52:01;40.17;;;19.13;;
27408;SDS011;20413;50.782;7.152;2022-12-18T01:54:26;46.85;;;21.90;;
27408;SDS011;20413;50.782;7.152;2022-12-18T01:56:52;51.70;;;26.25;;
27408;SDS011;20413;50.782;7.152;2022-12-18T01:59:18;47.40;;;23.45;;
27408;SDS011;20413;50.782;7.152;2022-12-18T02:01:44;46.17;;;22.13;;
27408;SDS011;20413;50.782;7.152;2022-12-18T02:04:24;44.40;;;20.17;;
27408;SDS011;20413;50.782;7.152;2022-12-18T02:06:51;40.80;;;19.58;;
27408;SDS011;20413;50.782;7.152;2022-12-18T02:09:20;40.15;;;18.60;;
27408;SDS011;20413;50.782;7.152;2022-12-18T02:11:50;38.58;;;18.33;;
27408;SDS011;20413;50.782;7.152;2022-12-18T02:14:29;42.30;;;18.42;;
27408;SDS011;20413;50.782;7.152;2022-12-18T02:17:06;45.05;;;20.42;;
27408;SDS011;20413;50.782;7.152;2022-12-18T02:19:44;37.75;;;18.95;;
27408;SDS011;20413;50.782;7.152;2022-12-18T02:27:23;40.88;;;19.10;;
27408;SDS011;20413;50.782;7.152;2022-12-18T02:29:53;36.72;;;18.73;;
27408;SDS011;20413;50.782;7.152;2022-12-18T02:32:22;40.22;;;19.70;;
27408;SDS011;20413;50.782;7.152;2022-12-18T02:34:49;39.97;;;18.55;;
27408;SDS011;20413;50.782;7.152;2022-12-18T02:37:16;36.78;;;17.73;;
27408;SDS011;20413;50.782;7.152;2022-12-18T02:42:09;43.88;;;19.38;;
27408;SDS011;20413;50.782;7.152;2022-12-18T02:44:46;30.43;;;14.37;;
27408;SDS011;20413;50.782;7.152;2022-12-18T02:47:13;40.67;;;19.38;;
27408;SDS011;20413;50.782;7.152;2022-12-18T02:55:51;42.35;;;19.02;;
27408;SDS011;20413;50.782;7.152;2022-12-18T02:57:44;38.95;;;18.95;;
27408;SDS011;20413;50.782;7.152;2022-12-18T03:00:13;38.90;;;19.10;;
27408;SDS011;20413;50.782;7.152;2022-12-18T03:02:45;38.05;;;17.88;;
27408;SDS011;20413;50.782;7.152;2022-12-18T03:05:15;38.55;;;18.67;;
27408;SDS011;20413;50.782;7.152;2022-12-18T03:07:50;41.50;;;18.35;;
27408;SDS011;20413;50.782;7.152;2022-12-18T03:10:19;38.22;;;18.42;;
27408;SDS011;20413;50.782;7.152;2022-12-18T03:12:48;37.92;;;19.02;;
27408;SDS011;20413;50.782;7.152;2022-12-18T03:15:19;33.67;;;17.17;;
27408;SDS011;20413;50.782;7.152;2022-12-18T03:17:48;36.42;;;17.83;;
27408;SDS011;20413;50.782;7.152;2022-12-18T03:20:17;36.45;;;16.95;;
27408;SDS011;20413;50.782;7.152;2022-12-18T03:22:44;37.70;;;17.52;;
27408;SDS011;20413;50.782;7.152;2022-12-18T03:25:13;37.88;;;18.33;;
27408;SDS011;20413;50.782;7.152;2022-12-18T03:27:40;38.90;;;19.23;;
27408;SDS011;20413;50.782;7.152;2022-12-18T03:30:09;36.38;;;19.15;;
27408;SDS011;20413;50.782;7.152;2022-12-18T03:32:46;36.72;;;18.42;;
27408;SDS011;20413;50.782;7.152;2022-12-18T03:35:14;40.53;;;18.15;;
27408;SDS011;20413;50.782;7.152;2022-12-18T03:37:42;41.30;;;21.83;;
27408;SDS011;20413;50.782;7.152;2022-12-18T03:40:08;42.78;;;20.60;;
27408;SDS011;20413;50.782;7.152;2022-12-18T03:42:51;41.35;;;20.17;;
27408;SDS011;20413;50.782;7.152;2022-12-18T03:45:29;36.42;;;17.92;;
27408;SDS011;20413;50.782;7.152;2022-12-18T03:50:27;37.30;;;18.17;;
27408;SDS011;20413;50.782;7.152;2022-12-18T03:55:40;40.08;;;18.80;;
27408;SDS011;20413;50.782;7.152;2022-12-18T03:58:06;35.90;;;17.50;;
27408;SDS011;20413;50.782;7.152;2022-12-18T04:00:33;39.53;;;18.77;;
27408;SDS011;20413;50.782;7.152;2022-12-18T04:02:59;37.22;;;18.40;;
27408;SDS011;20413;50.782;7.152;2022-12-18T04:05:26;45.40;;;21.33;;
27408;SDS011;20413;50.782;7.152;2022-12-18T04:07:53;34.60;;;17.93;;
27408;SDS011;20413;50.782;7.152;2022-12-18T04:10:20;30.25;;;14.60;;
27408;SDS011;20413;50.782;7.152;2022-12-18T04:12:46;37.38;;;18.40;;
27408;SDS011;20413;50.782;7.152;2022-12-18T04:15:12;42.30;;;20.38;;
27408;SDS011;20413;50.782;7.152;2022-12-18T04:17:38;40.20;;;20.17;;
27408;SDS011;20413;50.782;7.152;2022-12-18T04:20:05;29.03;;;15.70;;
27408;SDS011;20413;50.782;7.152;2022-12-18T04:22:31;38.50;;;19.55;;
27408;SDS011;20413;50.782;7.152;2022-12-18T04:24:57;42.08;;;18.63;;
27408;SDS011;20413;50.782;7.152;2022-12-18T04:27:23;39.33;;;19.65;;
27408;SDS011;20413;50.782;7.152;2022-12-18T04:29:49;39.72;;;19.20;;
27408;SDS011;20413;50.782;7.152;2022-12-18T04:32:15;41.25;;;18.95;;
27408;SDS011;20413;50.782;7.152;2022-12-18T04:34:41;38.10;;;18.45;;
27408;SDS011;20413;50.782;7.152;2022-12-18T04:37:07;43.97;;;20.38;;
27408;SDS011;20413;50.782;7.152;2022-12-18T04:39:33;41.20;;;18.88;;
27408;SDS011;20413;50.782;7.152;2022-12-18T04:42:00;37.67;;;18.25;;
27408;SDS011;20413;50.782;7.152;2022-12-18T04:44:26;29.23;;;14.82;;
27408;SDS011;20413;50.782;7.152;2022-12-18T04:46:52;40.25;;;19.10;;
27408;SDS011;20413;50.782;7.152;2022-12-18T04:49:18;43.33;;;19.92;;
27408;SDS011;20413;50.782;7.152;2022-12-18T04:51:44;43.60;;;18.90;;
27408;SDS011;20413;50.782;7.152;2022-12-18T04:54:10;42.55;;;18.83;;
27408;SDS011;20413;50.782;7.152;2022-12-18T04:56:36;40.80;;;19.40;;
27408;SDS011;20413;50.782;7.152;2022-12-18T04:59:01;43.13;;;19.20;;
27408;SDS011;20413;50.782;7.152;2022-12-18T05:01:28;46.05;;;20.13;;
27408;SDS011;20413;50.782;7.152;2022-12-18T05:03:53;45.30;;;19.60;;
27408;SDS011;20413;50.782;7.152;2022-12-18T05:06:19;43.95;;;20.33;;
27408;SDS011;20413;50.782;7.152;2022-12-18T05:08:45;45.65;;;20.95;;
27408;SDS011;20413;50.782;7.152;2022-12-18T05:11:12;43.13;;;19.25;;
27408;SDS011;20413;50.782;7.152;2022-12-18T05:13:40;43.60;;;19.27;;
27408;SDS011;20413;50.782;7.152;2022-12-18T05:16:07;41.30;;;19.55;;
27408;SDS011;20413;50.782;7.152;2022-12-18T05:18:33;45.53;;;19.17;;
27408;SDS011;20413;50.782;7.152;2022-12-18T05:20:59;38.25;;;18.63;;
27408;SDS011;20413;50.782;7.152;2022-12-18T05:23:25;36.08;;;18.13;;
27408;SDS011;20413;50.782;7.152;2022-12-18T05:28:17;35.13;;;18.60;;
27408;SDS011;20413;50.782;7.152;2022-12-18T05:30:47;38.08;;;18.05;;
27408;SDS011;20413;50.782;7.152;2022-12-18T05:33:13;39.17;;;18.23;;
27408;SDS011;20413;50.782;7.152;2022-12-18T05:35:39;38.65;;;18.88;;
27408;SDS011;20413;50.782;7.152;2022-12-18T05:38:05;38.33;;;18.65;;
27408;SDS011;20413;50.782;7.152;2022-12-18T05:40:31;37.78;;;18.42;;
27408;SDS011;20413;50.782;7.152;2022-12-18T05:42:57;38.60;;;18.15;;
27408;SDS011;20413;50.782;7.152;2022-12-18T05:45:23;37.42;;;18.48;;
27408;SDS011;20413;50.782;7.152;2022-12-18T05:47:49;37.20;;;18.88;;
27408;SDS011;20413;50.782;7.152;2022-12-18T05:50:15;39.08;;;18.75;;
27408;SDS011;20413;50.782;7.152;2022-12-18T05:52:41;36.53;;;18.85;;
27408;SDS011;20413;50.782;7.152;2022-12-18T05:55:07;36.47;;;18.85;;
27408;SDS011;20413;50.782;7.152;2022-12-18T05:57:33;37.65;;;18.73;;
27408;SDS011;20413;50.782;7.152;2022-12-18T05:59:59;37.92;;;19.75;;
27408;SDS011;20413;50.782;7.152;2022-12-18T06:02:25;45.33;;;20.13;;
27408;SDS011;20413;50.782;7.152;2022-12-18T06:04:51;41.08;;;19.13;;
27408;SDS011;20413;50.782;7.152;2022-12-18T06:07:17;41.45;;;20.13;;
27408;SDS011;20413;50.782;7.152;2022-12-18T06:09:43;45.33;;;20.50;;
27408;SDS011;20413;50.782;7.152;2022-12-18T06:12:09;42.45;;;20.17;;
27408;SDS011;20413;50.782;7.152;2022-12-18T06:14:35;37.40;;;18.92;;
27408;SDS011;20413;50.782;7.152;2022-12-18T06:17:01;39.05;;;18.92;;
27408;SDS011;20413;50.782;7.152;2022-12-18T06:19:27;40.33;;;19.10;;
27408;SDS011;20413;50.782;7.152;2022-12-18T06:21:53;44.47;;;21.83;;
27408;SDS011;20413;50.782;7.152;2022-12-18T06:24:19;43.05;;;21.30;;
27408;SDS011;20413;50.782;7.152;2022-12-18T06:26:45;44.42;;;21.75;;
27408;SDS011;20413;50.782;7.152;2022-12-18T06:29:11;49.55;;;22.77;;
27408;SDS011;20413;50.782;7.152;2022-12-18T06:31:37;44.03;;;21.45;;
27408;SDS011;20413;50.782;7.152;2022-12-18T06:34:03;43.80;;;20.98;;
27408;SDS011;20413;50.782;7.152;2022-12-18T06:36:29;50.35;;;22.30;;
27408;SDS011;20413;50.782;7.152;2022-12-18T06:38:55;49.38;;;22.08;;
27408;SDS011;20413;50.782;7.152;2022-12-18T06:41:22;45.67;;;22.48;;
27408;SDS011;20413;50.782;7.152;2022-12-18T06:43:48;48.42;;;22.05;;
27408;SDS011;20413;50.782;7.152;2022-12-18T06:46:14;49.00;;;22.42;;
27408;SDS011;20413;50.782;7.152;2022-12-18T06:48:40;47.67;;;21.98;;
27408;SDS011;20413;50.782;7.152;2022-12-18T06:51:06;47.33;;;20.92;;
27408;SDS011;20413;50.782;7.152;2022-12-18T06:53:32;44.55;;;21.50;;
27408;SDS011;20413;50.782;7.152;2022-12-18T06:55:59;48.47;;;20.03;;
27408;SDS011;20413;50.782;7.152;2022-12-18T06:58:25;39.58;;;16.60;;
27408;SDS011;20413;50.782;7.152;2022-12-18T07:00:52;41.03;;;20.23;;
27408;SDS011;20413;50.782;7.152;2022-12-18T07:03:18;43.38;;;20.75;;
27408;SDS011;20413;50.782;7.152;2022-12-18T07:05:44;46.50;;;21.40;;
27408;SDS011;20413;50.782;7.152;2022-12-18T07:08:10;48.72;;;22.02;;
27408;SDS011;20413;50.782;7.152;2022-12-18T07:10:45;50.65;;;22.48;;
27408;SDS011;20413;50.782;7.152;2022-12-18T07:13:11;49.50;;;23.40;;
27408;SDS011;20413;50.782;7.152;2022-12-18T07:15:37;46.47;;;22.77;;
27408;SDS011;20413;50.782;7.152;2022-12-18T07:18:03;53.13;;;23.75;;
27408;SDS011;20413;50.782;7.152;2022-12-18T07:20:29;49.53;;;22.92;;
27408;SDS011;20413;50.782;7.152;2022-12-18T07:22:55;52.67;;;23.90;;
27408;SDS011;20413;50.782;7.152;2022-12-18T07:25:20;46.65;;;21.98;;
27408;SDS011;20413;50.782;7.152;2022-12-18T07:27:46;48.30;;;22.23;;
27408;SDS011;20413;50.782;7.152;2022-12-18T07:30:12;51.85;;;24.67;;
27408;SDS011;20413;50.782;7.152;2022-12-18T07:32:38;54.17;;;25.02;;
27408;SDS011;20413;50.782;7.152;2022-12-18T07:35:04;57.08;;;24.90;;
27408;SDS011;20413;50.782;7.152;2022-12-18T07:37:30;46.90;;;22.52;;
27408;SDS011;20413;50.782;7.152;2022-12-18T07:39:56;48.50;;;21.63;;
27408;SDS011;20413;50.782;7.152;2022-12-18T07:42:22;47.22;;;22.33;;
27408;SDS011;20413;50.782;7.152;2022-12-18T07:45:00;45.75;;;22.63;;
27408;SDS011;20413;50.782;7.152;2022-12-18T07:47:27;44.75;;;21.20;;
27408;SDS011;20413;50.782;7.152;2022-12-18T07:49:53;34.63;;;17.05;;
27408;SDS011;20413;50.782;7.152;2022-12-18T07:52:20;43.05;;;20.58;;
27408;SDS011;20413;50.782;7.152;2022-12-18T07:54:46;44.28;;;22.30;;
27408;SDS011;20413;50.782;7.152;2022-12-18T07:57:14;45.00;;;22.20;;
27408;SDS011;20413;50.782;7.152;2022-12-18T07:59:41;44.70;;;21.58;;
27408;SDS011;20413;50.782;7.152;2022-12-18T08:02:07;44.53;;;21.58;;
27408;SDS011;20413;50.782;7.152;2022-12-18T08:04:33;40.47;;;20.23;;
27408;SDS011;20413;50.782;7.152;2022-12-18T08:06:59;45.97;;;21.85;;
27408;SDS011;20413;50.782;7.152;2022-12-18T08:09:25;43.88;;;21.80;;
27408;SDS011;20413;50.782;7.152;2022-12-18T08:11:51;42.95;;;20.58;;
27408;SDS011;20413;50.782;7.152;2022-12-18T08:14:17;42.42;;;19.88;;
27408;SDS011;20413;50.782;7.152;2022-12-18T08:16:43;41.08;;;20.77;;
27408;SDS011;20413;50.782;7.152;2022-12-18T08:19:09;44.00;;;21.38;;
27408;SDS011;20413;50.782;7.152;2022-12-18T08:21:35;44.95;;;21.80;;
27408;SDS011;20413;50.782;7.152;2022-12-18T08:24:01;42.92;;;20.27;;
27408;SDS011;20413;50.782;7.152;2022-12-18T08:26:28;45.15;;;20.70;;
27408;SDS011;20413;50.782;7.152;2022-12-18T08:28:55;37.50;;;17.33;;
27408;SDS011;20413;50.782;7.152;2022-12-18T08:31:21;31.70;;;15.73;;
27408;SDS011;20413;50.782;7.152;2022-12-18T08:33:48;40.63;;;19.58;;
27408;SDS011;20413;50.782;7.152;2022-12-18T08:36:15;45.53;;;20.60;;
27408;SDS011;20413;50.782;7.152;2022-12-18T08:38:41;42.40;;;20.67;;
27408;SDS011;20413;50.782;7.152;2022-12-18T08:41:09;41.65;;;20.13;;
27408;SDS011;20413;50.782;7.152;2022-12-18T08:43:35;38.83;;;17.48;;
27408;SDS011;20413;50.782;7.152;2022-12-18T08:46:20;36.92;;;18.65;;
27408;SDS011;20413;50.782;7.152;2022-12-18T08:48:46;39.72;;;18.73;;
27408;SDS011;20413;50.782;7.152;2022-12-18T08:51:13;37.90;;;18.63;;
27408;SDS011;20413;50.782;7.152;2022-12-18T08:53:39;39.90;;;18.45;;
27408;SDS011;20413;50.782;7.152;2022-12-18T08:56:05;35.78;;;17.23;;
27408;SDS011;20413;50.782;7.152;2022-12-18T08:58:31;38.45;;;17.83;;
27408;SDS011;20413;50.782;7.152;2022-12-18T09:01:00;37.63;;;17.98;;
27408;SDS011;20413;50.782;7.152;2022-12-18T09:03:27;35.50;;;17.10;;
27408;SDS011;20413;50.782;7.152;2022-12-18T09:05:53;38.90;;;18.38;;
27408;SDS011;20413;50.782;7.152;2022-12-18T09:08:19;38.08;;;17.92;;
27408;SDS011;20413;50.782;7.152;2022-12-18T09:10:45;39.78;;;18.48;;
27408;SDS011;20413;50.782;7.152;2022-12-18T09:13:11;34.35;;;16.95;;
27408;SDS011;20413;50.782;7.152;2022-12-18T09:15:44;35.22;;;17.25;;
27408;SDS011;20413;50.782;7.152;2022-12-18T09:18:11;35.08;;;17.48;;
27408;SDS011;20413;50.782;7.152;2022-12-18T09:20:37;35.97;;;17.33;;
27408;SDS011;20413;50.782;7.152;2022-12-18T09:23:04;36.15;;;16.77;;
27408;SDS011;20413;50.782;7.152;2022-12-18T09:25:30;30.58;;;14.95;;
27408;SDS011;20413;50.782;7.152;2022-12-18T09:28:10;40.25;;;17.40;;
27408;SDS011;20413;50.782;7.152;2022-12-18T09:30:37;30.65;;;15.02;;
27408;SDS011;20413;50.782;7.152;2022-12-18T09:33:03;39.33;;;16.35;;
27408;SDS011;20413;50.782;7.152;2022-12-18T09:35:29;31.85;;;13.93;;
27408;SDS011;20413;50.782;7.152;2022-12-18T09:37:55;33.63;;;16.05;;
27408;SDS011;20413;50.782;7.152;2022-12-18T09:40:22;33.20;;;14.75;;
27408;SDS011;20413;50.782;7.152;2022-12-18T09:45:15;35.13;;;16.27;;
27408;SDS011;20413;50.782;7.152;2022-12-18T09:47:42;36.20;;;16.60;;
27408;SDS011;20413;50.782;7.152;2022-12-18T09:52:48;32.00;;;15.38;;
27408;SDS011;20413;50.782;7.152;2022-12-18T09:57:48;32.53;;;14.48;;
27408;SDS011;20413;50.782;7.152;2022-12-18T10:02:41;34.05;;;16.10;;
27408;SDS011;20413;50.782;7.152;2022-12-18T10:05:10;31.67;;;14.32;;
27408;SDS011;20413;50.782;7.152;2022-12-18T10:07:42;30.00;;;13.38;;
27408;SDS011;20413;50.782;7.152;2022-12-18T10:10:21;35.85;;;15.63;;
27408;SDS011;20413;50.782;7.152;2022-12-18T10:15:24;31.20;;;14.10;;
27408;SDS011;20413;50.782;7.152;2022-12-18T10:17:57;22.77;;;10.90;;
27408;SDS011;20413;50.782;7.152;2022-12-18T10:23:19;26.77;;;10.75;;
27408;SDS011;20413;50.782;7.152;2022-12-18T10:26:01;27.65;;;12.52;;
27408;SDS011;20413;50.782;7.152;2022-12-18T10:28:27;33.08;;;14.55;;
27408;SDS011;20413;50.782;7.152;2022-12-18T10:30:55;23.73;;;11.00;;
27408;SDS011;20413;50.782;7.152;2022-12-18T10:33:22;23.63;;;10.30;;
27408;SDS011;20413;50.782;7.152;2022-12-18T10:35:51;23.15;;;10.88;;
27408;SDS011;20413;50.782;7.152;2022-12-18T10:40:47;23.20;;;9.75;;
27408;SDS011;20413;50.782;7.152;2022-12-18T10:43:15;26.85;;;11.43;;
27408;SDS011;20413;50.782;7.152;2022-12-18T10:45:41;23.60;;;10.68;;
27408;SDS011;20413;50.782;7.152;2022-12-18T10:48:19;19.55;;;9.55;;
27408;SDS011;20413;50.782;7.152;2022-12-18T10:50:47;26.05;;;12.40;;
27408;SDS011;20413;50.782;7.152;2022-12-18T10:53:17;27.90;;;10.65;;
27408;SDS011;20413;50.782;7.152;2022-12-18T10:55:45;27.73;;;12.32;;
27408;SDS011;20413;50.782;7.152;2022-12-18T10:58:27;18.77;;;9.03;;
27408;SDS011;20413;50.782;7.152;2022-12-18T11:01:04;30.75;;;14.00;;
27408;SDS011;20413;50.782;7.152;2022-12-18T11:03:32;30.45;;;12.75;;
27408;SDS011;20413;50.782;7.152;2022-12-18T11:06:02;29.58;;;12.43;;
27408;SDS011;20413;50.782;7.152;2022-12-18T11:08:29;14.55;;;8.40;;
27408;SDS011;20413;50.782;7.152;2022-12-18T11:10:55;21.25;;;10.75;;
27408;SDS011;20413;50.782;7.152;2022-12-18T11:13:22;20.50;;;10.13;;
27408;SDS011;20413;50.782;7.152;2022-12-18T11:18:24;24.70;;;12.32;;
27408;SDS011;20413;50.782;7.152;2022-12-18T11:20:58;28.92;;;11.90;;
27408;SDS011;20413;50.782;7.152;2022-12-18T11:23:25;33.10;;;14.23;;
27408;SDS011;20413;50.782;7.152;2022-12-18T11:25:52;34.10;;;14.15;;
27408;SDS011;20413;50.782;7.152;2022-12-18T11:33:36;25.70;;;10.82;;
27408;SDS011;20413;50.782;7.152;2022-12-18T11:36:02;21.77;;;11.43;;
27408;SDS011;20413;50.782;7.152;2022-12-18T11:38:30;29.35;;;13.23;;
27408;SDS011;20413;50.782;7.152;2022-12-18T11:40:59;29.60;;;13.50;;
27408;SDS011;20413;50.782;7.152;2022-12-18T11:46:10;22.23;;;9.68;;
27408;SDS011;20413;50.782;7.152;2022-12-18T11:48:57;28.08;;;14.60;;
27408;SDS011;20413;50.782;7.152;2022-12-18T11:51:30;28.65;;;14.45;;
27408;SDS011;20413;50.782;7.152;2022-12-18T11:54:00;29.80;;;12.15;;
27408;SDS011;20413;50.782;7.152;2022-12-18T11:56:34;35.30;;;15.48;;
27408;SDS011;20413;50.782;7.152;2022-12-18T12:01:51;29.27;;;13.57;;
27408;SDS011;20413;50.782;7.152;2022-12-18T12:04:36;28.75;;;13.68;;
27408;SDS011;20413;50.782;7.152;2022-12-18T12:07:22;25.35;;;11.18;;
27408;SDS011;20413;50.782;7.152;2022-12-18T12:12:27;35.33;;;16.90;;
27408;SDS011;20413;50.782;7.152;2022-12-18T12:15:31;36.38;;;15.45;;
27408;SDS011;20413;50.782;7.152;2022-12-18T12:40:49;31.90;;;15.55;;
27408;SDS011;20413;50.782;7.152;2022-12-18T12:43:37;37.15;;;18.80;;
27408;SDS011;20413;50.782;7.152;2022-12-18T12:46:11;33.25;;;15.85;;
27408;SDS011;20413;50.782;7.152;2022-12-18T12:51:18;29.75;;;15.27;;
27408;SDS011;20413;50.782;7.152;2022-12-18T12:53:45;29.88;;;13.93;;
27408;SDS011;20413;50.782;7.152;2022-12-18T12:56:11;27.95;;;11.57;;
27408;SDS011;20413;50.782;7.152;2022-12-18T12:58:51;33.08;;;16.75;;
27408;SDS011;20413;50.782;7.152;2022-12-18T13:06:50;34.33;;;13.15;;
27408;SDS011;20413;50.782;7.152;2022-12-18T13:09:18;39.13;;;18.45;;
27408;SDS011;20413;50.782;7.152;2022-12-18T13:11:47;34.50;;;15.07;;
27408;SDS011;20413;50.782;7.152;2022-12-18T13:14:36;31.00;;;14.10;;
27408;SDS011;20413;50.782;7.152;2022-12-18T13:17:15;36.80;;;17.60;;
27408;SDS011;20413;50.782;7.152;2022-12-18T13:19:42;32.05;;;14.43;;
27408;SDS011;20413;50.782;7.152;2022-12-18T13:22:24;43.97;;;18.60;;
27408;SDS011;20413;50.782;7.152;2022-12-18T13:24:50;37.47;;;17.90;;
27408;SDS011;20413;50.782;7.152;2022-12-18T13:27:45;37.33;;;17.02;;
27408;SDS011;20413;50.782;7.152;2022-12-18T13:33:30;42.53;;;19.58;;
27408;SDS011;20413;50.782;7.152;2022-12-18T13:43:41;38.70;;;17.25;;
27408;SDS011;20413;50.782;7.152;2022-12-18T13:51:28;40.50;;;18.75;;
27408;SDS011;20413;50.782;7.152;2022-12-18T13:54:17;44.60;;;19.02;;
27408;SDS011;20413;50.782;7.152;2022-12-18T13:56:45;37.92;;;16.42;;
27408;SDS011;20413;50.782;7.152;2022-12-18T13:59:13;34.08;;;14.77;;
27408;SDS011;20413;50.782;7.152;2022-12-18T14:01:59;41.47;;;18.27;;
27408;SDS011;20413;50.782;7.152;2022-12-18T14:04:29;39.00;;;17.08;;
27408;SDS011;20413;50.782;7.152;2022-12-18T14:06:57;29.13;;;13.27;;
27408;SDS011;20413;50.782;7.152;2022-12-18T14:11:50;33.67;;;15.02;;
27408;SDS011;20413;50.782;7.152;2022-12-18T14:14:17;25.60;;;11.88;;
27408;SDS011;20413;50.782;7.152;2022-12-18T14:16:43;28.80;;;11.63;;
27408;SDS011;20413;50.782;7.152;2022-12-18T14:19:14;22.60;;;10.75;;
27408;SDS011;20413;50.782;7.152;2022-12-18T14:21:45;32.40;;;13.48;;
27408;SDS011;20413;50.782;7.152;2022-12-18T14:24:16;23.20;;;11.15;;
27408;SDS011;20413;50.782;7.152;2022-12-18T14:26:42;39.90;;;18.00;;
27408;SDS011;20413;50.782;7.152;2022-12-18T14:29:25;30.92;;;12.57;;
27408;SDS011;20413;50.782;7.152;2022-12-18T14:32:13;42.10;;;19.20;;
27408;SDS011;20413;50.782;7.152;2022-12-18T14:34:39;40.97;;;16.60;;
27408;SDS011;20413;50.782;7.152;2022-12-18T14:37:05;27.15;;;10.73;;
27408;SDS011;20413;50.782;7.152;2022-12-18T14:39:31;32.38;;;14.40;;
27408;SDS011;20413;50.782;7.152;2022-12-18T14:41:57;31.85;;;12.77;;
27408;SDS011;20413;50.782;7.152;2022-12-18T14:44:23;28.42;;;12.82;;
27408;SDS011;20413;50.782;7.152;2022-12-18T14:46:49;37.35;;;17.38;;
27408;SDS011;20413;50.782;7.152;2022-12-18T14:49:33;32.58;;;14.98;;
27408;SDS011;20413;50.782;7.152;2022-12-18T14:52:03;35.97;;;17.08;;
27408;SDS011;20413;50.782;7.152;2022-12-18T14:54:29;37.92;;;17.65;;
27408;SDS011;20413;50.782;7.152;2022-12-18T14:59:23;41.47;;;19.80;;
27408;SDS011;20413;50.782;7.152;2022-12-18T15:04:32;41.17;;;17.50;;
27408;SDS011;20413;50.782;7.152;2022-12-18T15:09:32;38.03;;;17.58;;
27408;SDS011;20413;50.782;7.152;2022-12-18T15:11:58;31.02;;;13.38;;
27408;SDS011;20413;50.782;7.152;2022-12-18T15:14:32;31.73;;;14.80;;
27408;SDS011;20413;50.782;7.152;2022-12-18T15:17:00;33.70;;;15.07;;
27408;SDS011;20413;50.782;7.152;2022-12-18T15:19:40;28.95;;;14.13;;
27408;SDS011;20413;50.782;7.152;2022-12-18T15:22:17;41.95;;;19.02;;
27408;SDS011;20413;50.782;7.152;2022-12-18T15:24:44;25.35;;;11.40;;
27408;SDS011;20413;50.782;7.152;2022-12-18T15:27:20;46.15;;;21.73;;
27408;SDS011;20413;50.782;7.152;2022-12-18T15:32:30;41.85;;;18.08;;
27408;SDS011;20413;50.782;7.152;2022-12-18T15:37:35;42.97;;;19.50;;
27408;SDS011;20413;50.782;7.152;2022-12-18T15:40:01;41.17;;;19.15;;
27408;SDS011;20413;50.782;7.152;2022-12-18T15:42:28;39.42;;;18.25;;
27408;SDS011;20413;50.782;7.152;2022-12-18T15:45:13;39.60;;;16.67;;
27408;SDS011;20413;50.782;7.152;2022-12-18T15:47:39;48.10;;;21.33;;
27408;SDS011;20413;50.782;7.152;2022-12-18T15:50:06;45.88;;;22.40;;
27408;SDS011;20413;50.782;7.152;2022-12-18T15:52:34;48.25;;;20.45;;
27408;SDS011;20413;50.782;7.152;2022-12-18T15:55:01;46.80;;;21.23;;
27408;SDS011;20413;50.782;7.152;2022-12-18T15:57:53;44.97;;;20.85;;
27408;SDS011;20413;50.782;7.152;2022-12-18T16:00:19;43.13;;;20.90;;
27408;SDS011;20413;50.782;7.152;2022-12-18T16:02:45;41.50;;;19.58;;
27408;SDS011;20413;50.782;7.152;2022-12-18T16:05:13;41.50;;;18.65;;
27408;SDS011;20413;50.782;7.152;2022-12-18T16:07:40;42.85;;;18.50;;
27408;SDS011;20413;50.782;7.152;2022-12-18T16:10:06;40.60;;;18.38;;
27408;SDS011;20413;50.782;7.152;2022-12-18T16:12:32;47.15;;;22.10;;
27408;SDS011;20413;50.782;7.152;2022-12-18T16:14:58;35.08;;;14.55;;
27408;SDS011;20413;50.782;7.152;2022-12-18T16:17:24;46.83;;;19.40;;
27408;SDS011;20413;50.782;7.152;2022-12-18T16:19:50;47.00;;;20.17;;
27408;SDS011;20413;50.782;7.152;2022-12-18T16:22:34;47.10;;;20.33;;
27408;SDS011;20413;50.782;7.152;2022-12-18T16:25:00;44.53;;;20.20;;
27408;SDS011;20413;50.782;7.152;2022-12-18T16:27:26;47.58;;;22.00;;
27408;SDS011;20413;50.782;7.152;2022-12-18T16:29:52;30.90;;;13.70;;